sensor_id;sensor_type;location;lat;lon;timestamp;pressure;altitude;pressure_sealevel;temperature;humidity
76551;BME280;68768;53.156;18.164;2023-12-14T00:02:05;100563.36;;;1.94;89.85
76551;BME280;68768;53.156;18.164;2023-12-14T00:04:31;100561.95;;;1.94;89.86
76551;BME280;68768;53.156;18.164;2023-12-14T00:06:57;100567.56;;;1.94;89.74
76551;BME280;68768;53.156;18.164;2023-12-14T00:09:24;100565.27;;;1.94;89.74
76551;BME280;68768;53.156;18.164;2023-12-14T00:11:50;100567.36;;;1.95;89.83
76551;BME280;68768;53.156;18.164;2023-12-14T00:14:16;100571.22;;;1.95;89.64
76551;BME280;68768;53.156;18.164;2023-12-14T00:16:43;100572.31;;;1.93;89.60
76551;BME280;68768;53.156;18.164;2023-12-14T00:19:09;100570.56;;;1.93;89.77
76551;BME280;68768;53.156;18.164;2023-12-14T00:21:35;100572.66;;;1.92;89.78
76551;BME280;68768;53.156;18.164;2023-12-14T00:24:01;100573.54;;;1.91;89.63
76551;BME280;68768;53.156;18.164;2023-12-14T00:26:28;100577.91;;;1.90;89.69
76551;BME280;68768;53.156;18.164;2023-12-14T00:28:54;100579.31;;;1.90;89.68
76551;BME280;68768;53.156;18.164;2023-12-14T00:31:21;100583.70;;;1.89;89.61
76551;BME280;68768;53.156;18.164;2023-12-14T00:33:47;100582.30;;;1.88;89.72
76551;BME280;68768;53.156;18.164;2023-12-14T00:36:19;100585.63;;;1.87;89.78
76551;BME280;68768;53.156;18.164;2023-12-14T00:38:46;100586.15;;;1.87;89.79
76551;BME280;68768;53.156;18.164;2023-12-14T00:41:12;100584.92;;;1.85;89.61
76551;BME280;68768;53.156;18.164;2023-12-14T00:43:39;100586.67;;;1.84;89.63
76551;BME280;68768;53.156;18.164;2023-12-14T00:46:05;100586.33;;;1.86;89.64
76551;BME280;68768;53.156;18.164;2023-12-14T00:48:31;100588.08;;;1.85;89.67
76551;BME280;68768;53.156;18.164;2023-12-14T00:50:58;100586.69;;;1.84;89.72
76551;BME280;68768;53.156;18.164;2023-12-14T00:53:24;100583.20;;;1.82;89.69
76551;BME280;68768;53.156;18.164;2023-12-14T00:55:51;100590.73;;;1.82;89.63
76551;BME280;68768;53.156;18.164;2023-12-14T00:58:17;100591.61;;;1.81;89.74
76551;BME280;68768;53.156;18.164;2023-12-14T01:00:43;100596.33;;;1.81;89.76
76551;BME280;68768;53.156;18.164;2023-12-14T01:03:09;100596.68;;;1.82;89.75
76551;BME280;68768;53.156;18.164;2023-12-14T01:05:36;100596.33;;;1.81;89.78
76551;BME280;68768;53.156;18.164;2023-12-14T01:08:02;100600.01;;;1.81;89.81
76551;BME280;68768;53.156;18.164;2023-12-14T01:10:29;100599.48;;;1.80;89.72
76551;BME280;68768;53.156;18.164;2023-12-14T01:12:55;100601.06;;;1.78;89.77
76551;BME280;68768;53.156;18.164;2023-12-14T01:15:22;100602.63;;;1.78;89.83
76551;BME280;68768;53.156;18.164;2023-12-14T01:17:48;100601.77;;;1.78;89.78
76551;BME280;68768;53.156;18.164;2023-12-14T01:20:14;100605.97;;;1.77;89.73
76551;BME280;68768;53.156;18.164;2023-12-14T01:22:41;100611.21;;;1.77;89.84
76551;BME280;68768;53.156;18.164;2023-12-14T01:25:07;100610.34;;;1.76;89.90
76551;BME280;68768;53.156;18.164;2023-12-14T01:27:34;100610.52;;;1.75;89.96
76551;BME280;68768;53.156;18.164;2023-12-14T01:30:00;100611.04;;;1.75;89.88
76551;BME280;68768;53.156;18.164;2023-12-14T01:32:27;100614.02;;;1.76;89.89
76551;BME280;68768;53.156;18.164;2023-12-14T01:34:53;100616.11;;;1.77;89.82
76551;BME280;68768;53.156;18.164;2023-12-14T01:37:19;100617.16;;;1.77;89.92
76551;BME280;68768;53.156;18.164;2023-12-14T01:39:46;100620.14;;;1.77;89.95
76551;BME280;68768;53.156;18.164;2023-12-14T01:42:12;100617.33;;;1.78;89.96
76551;BME280;68768;53.156;18.164;2023-12-14T01:44:39;100620.48;;;1.78;89.91
76551;BME280;68768;53.156;18.164;2023-12-14T01:47:06;100621.54;;;1.77;89.86
76551;BME280;68768;53.156;18.164;2023-12-14T01:49:32;100623.29;;;1.77;89.81
76551;BME280;68768;53.156;18.164;2023-12-14T01:51:58;100621.19;;;1.76;89.90
76551;BME280;68768;53.156;18.164;2023-12-14T01:54:25;100619.09;;;1.77;89.81
76551;BME280;68768;53.156;18.164;2023-12-14T01:56:51;100621.01;;;1.77;89.83
76551;BME280;68768;53.156;18.164;2023-12-14T01:59:17;100619.96;;;1.76;89.79
76551;BME280;68768;53.156;18.164;2023-12-14T02:01:45;100617.69;;;1.76;89.96
76551;BME280;68768;53.156;18.164;2023-12-14T02:04:13;100618.21;;;1.75;89.82
76551;BME280;68768;53.156;18.164;2023-12-14T02:06:41;100617.16;;;1.75;89.92
76551;BME280;68768;53.156;18.164;2023-12-14T02:09:07;100615.06;;;1.74;89.86
76551;BME280;68768;53.156;18.164;2023-12-14T02:11:34;100610.69;;;1.74;89.95
76551;BME280;68768;53.156;18.164;2023-12-14T02:14:09;100613.48;;;1.75;89.98
76551;BME280;68768;53.156;18.164;2023-12-14T02:16:36;100608.41;;;1.74;89.92
76551;BME280;68768;53.156;18.164;2023-12-14T02:19:05;100608.96;;;1.72;89.94
76551;BME280;68768;53.156;18.164;2023-12-14T02:21:31;100611.60;;;1.71;90.08
76551;BME280;68768;53.156;18.164;2023-12-14T02:23:58;100615.98;;;1.71;90.06
76551;BME280;68768;53.156;18.164;2023-12-14T02:26:24;100616.50;;;1.71;89.91
76551;BME280;68768;53.156;18.164;2023-12-14T02:28:50;100615.63;;;1.70;89.97
76551;BME280;68768;53.156;18.164;2023-12-14T02:31:19;100617.20;;;1.69;89.99
76551;BME280;68768;53.156;18.164;2023-12-14T02:33:46;100618.77;;;1.69;90.01
76551;BME280;68768;53.156;18.164;2023-12-14T02:36:12;100623.33;;;1.68;90.08
76551;BME280;68768;53.156;18.164;2023-12-14T02:38:38;100619.30;;;1.67;90.01
76551;BME280;68768;53.156;18.164;2023-12-14T02:41:05;100623.67;;;1.66;90.14
76551;BME280;68768;53.156;18.164;2023-12-14T02:43:31;100627.70;;;1.67;90.09
76551;BME280;68768;53.156;18.164;2023-12-14T02:45:58;100625.77;;;1.67;90.17
76551;BME280;68768;53.156;18.164;2023-12-14T02:48:28;100626.48;;;1.67;90.26
76551;BME280;68768;53.156;18.164;2023-12-14T02:50:55;100624.02;;;1.66;90.28
76551;BME280;68768;53.156;18.164;2023-12-14T02:53:22;100627.17;;;1.66;90.19
76551;BME280;68768;53.156;18.164;2023-12-14T02:55:48;100631.73;;;1.66;90.18
76551;BME280;68768;53.156;18.164;2023-12-14T02:58:15;100633.30;;;1.67;90.28
76551;BME280;68768;53.156;18.164;2023-12-14T03:00:41;100637.14;;;1.67;90.19
76551;BME280;68768;53.156;18.164;2023-12-14T03:03:07;100640.98;;;1.67;90.18
76551;BME280;68768;53.156;18.164;2023-12-14T03:05:33;100639.41;;;1.67;90.14
76551;BME280;68768;53.156;18.164;2023-12-14T03:08:00;100642.91;;;1.68;90.22
76551;BME280;68768;53.156;18.164;2023-12-14T03:10:26;100643.27;;;1.68;90.14
76551;BME280;68768;53.156;18.164;2023-12-14T03:12:52;100646.23;;;1.69;90.11
76551;BME280;68768;53.156;18.164;2023-12-14T03:15:18;100645.36;;;1.69;90.01
76551;BME280;68768;53.156;18.164;2023-12-14T03:17:45;100648.52;;;1.70;89.99
76551;BME280;68768;53.156;18.164;2023-12-14T03:20:11;100650.61;;;1.70;89.95
76551;BME280;68768;53.156;18.164;2023-12-14T03:22:40;100652.19;;;1.69;89.87
76551;BME280;68768;53.156;18.164;2023-12-14T03:25:07;100655.69;;;1.69;89.83
76551;BME280;68768;53.156;18.164;2023-12-14T03:27:33;100654.98;;;1.69;89.71
76551;BME280;68768;53.156;18.164;2023-12-14T03:30:00;100657.79;;;1.69;89.60
76551;BME280;68768;53.156;18.164;2023-12-14T03:32:27;100655.70;;;1.65;89.66
76551;BME280;68768;53.156;18.164;2023-12-14T03:34:53;100661.81;;;1.67;89.73
76551;BME280;68768;53.156;18.164;2023-12-14T03:37:19;100663.39;;;1.69;89.73
76551;BME280;68768;53.156;18.164;2023-12-14T03:39:46;100668.29;;;1.70;89.52
76551;BME280;68768;53.156;18.164;2023-12-14T03:42:12;100668.46;;;1.69;89.44
76551;BME280;68768;53.156;18.164;2023-12-14T03:44:38;100673.71;;;1.68;89.36
76551;BME280;68768;53.156;18.164;2023-12-14T03:47:05;100675.46;;;1.68;89.38
76551;BME280;68768;53.156;18.164;2023-12-14T03:49:36;100678.09;;;1.69;89.51
76551;BME280;68768;53.156;18.164;2023-12-14T03:52:03;100680.19;;;1.71;89.47
76551;BME280;68768;53.156;18.164;2023-12-14T03:54:30;100683.69;;;1.72;89.27
76551;BME280;68768;53.156;18.164;2023-12-14T03:56:56;100681.41;;;1.71;89.29
76551;BME280;68768;53.156;18.164;2023-12-14T03:59:22;100687.36;;;1.71;89.23
76551;BME280;68768;53.156;18.164;2023-12-14T04:01:48;100686.31;;;1.71;89.00
76551;BME280;68768;53.156;18.164;2023-12-14T04:04:14;100690.68;;;1.69;88.97
76551;BME280;68768;53.156;18.164;2023-12-14T04:06:41;100692.78;;;1.69;88.87
76551;BME280;68768;53.156;18.164;2023-12-14T04:09:07;100697.85;;;1.69;89.08
76551;BME280;68768;53.156;18.164;2023-12-14T04:11:33;100703.27;;;1.69;89.12
76551;BME280;68768;53.156;18.164;2023-12-14T04:13:59;100708.17;;;1.69;88.89
76551;BME280;68768;53.156;18.164;2023-12-14T04:16:26;100709.92;;;1.68;89.10
76551;BME280;68768;53.156;18.164;2023-12-14T04:18:52;100710.45;;;1.68;89.09
76551;BME280;68768;53.156;18.164;2023-12-14T04:21:18;100709.23;;;1.66;88.78
76551;BME280;68768;53.156;18.164;2023-12-14T04:23:45;100714.30;;;1.65;88.89
76551;BME280;68768;53.156;18.164;2023-12-14T04:26:11;100713.06;;;1.65;88.85
76551;BME280;68768;53.156;18.164;2023-12-14T04:28:39;100713.42;;;1.64;88.81
76551;BME280;68768;53.156;18.164;2023-12-14T04:31:06;100712.04;;;1.63;88.90
76551;BME280;68768;53.156;18.164;2023-12-14T04:33:32;100712.04;;;1.63;88.83
76551;BME280;68768;53.156;18.164;2023-12-14T04:35:58;100714.31;;;1.63;88.84
76551;BME280;68768;53.156;18.164;2023-12-14T04:38:24;100715.71;;;1.63;88.94
76551;BME280;68768;53.156;18.164;2023-12-14T04:40:51;100719.57;;;1.61;89.01
76551;BME280;68768;53.156;18.164;2023-12-14T04:43:17;100721.14;;;1.61;88.94
76551;BME280;68768;53.156;18.164;2023-12-14T04:45:43;100724.81;;;1.60;88.84
76551;BME280;68768;53.156;18.164;2023-12-14T04:48:10;100731.64;;;1.59;88.85
76551;BME280;68768;53.156;18.164;2023-12-14T04:50:36;100733.21;;;1.58;88.85
76551;BME280;68768;53.156;18.164;2023-12-14T04:53:02;100734.42;;;1.56;88.81
76551;BME280;68768;53.156;18.164;2023-12-14T04:55:29;100736.36;;;1.55;88.96
76551;BME280;68768;53.156;18.164;2023-12-14T04:57:55;100742.83;;;1.56;89.06
76551;BME280;68768;53.156;18.164;2023-12-14T05:00:21;100736.17;;;1.56;89.02
76551;BME280;68768;53.156;18.164;2023-12-14T05:02:47;100740.02;;;1.56;89.00
76551;BME280;68768;53.156;18.164;2023-12-14T05:05:17;100740.55;;;1.55;88.96
76551;BME280;68768;53.156;18.164;2023-12-14T05:07:43;100740.21;;;1.53;89.06
76551;BME280;68768;53.156;18.164;2023-12-14T05:10:09;100736.90;;;1.50;89.13
76551;BME280;68768;53.156;18.164;2023-12-14T05:12:36;100738.48;;;1.50;89.09
76551;BME280;68768;53.156;18.164;2023-12-14T05:15:05;100739.52;;;1.49;88.98
76551;BME280;68768;53.156;18.164;2023-12-14T05:17:31;100746.34;;;1.47;88.94
76551;BME280;68768;53.156;18.164;2023-12-14T05:19:58;100747.73;;;1.46;89.05
76551;BME280;68768;53.156;18.164;2023-12-14T05:22:24;100750.01;;;1.46;89.02
76551;BME280;68768;53.156;18.164;2023-12-14T05:24:51;100751.23;;;1.45;89.02
76551;BME280;68768;53.156;18.164;2023-12-14T05:27:17;100757.35;;;1.43;88.95
76551;BME280;68768;53.156;18.164;2023-12-14T05:29:43;100763.31;;;1.41;88.83
76551;BME280;68768;53.156;18.164;2023-12-14T05:32:09;100767.16;;;1.39;88.97
76551;BME280;68768;53.156;18.164;2023-12-14T05:34:36;100766.11;;;1.39;88.92
76551;BME280;68768;53.156;18.164;2023-12-14T05:37:02;100774.85;;;1.39;88.89
76551;BME280;68768;53.156;18.164;2023-12-14T05:39:28;100772.40;;;1.39;88.93
76551;BME280;68768;53.156;18.164;2023-12-14T05:41:55;100776.25;;;1.40;88.80
76551;BME280;68768;53.156;18.164;2023-12-14T05:44:21;100775.38;;;1.40;88.79
76551;BME280;68768;53.156;18.164;2023-12-14T05:46:49;100776.25;;;1.39;88.88
76551;BME280;68768;53.156;18.164;2023-12-14T05:49:15;100779.21;;;1.40;88.76
76551;BME280;68768;53.156;18.164;2023-12-14T05:51:41;100781.85;;;1.40;88.79
76551;BME280;68768;53.156;18.164;2023-12-14T05:54:07;100782.20;;;1.40;88.79
76551;BME280;68768;53.156;18.164;2023-12-14T05:56:34;100784.83;;;1.40;88.74
76551;BME280;68768;53.156;18.164;2023-12-14T05:59:00;100786.75;;;1.41;88.80
76551;BME280;68768;53.156;18.164;2023-12-14T06:01:26;100781.86;;;1.42;88.74
76551;BME280;68768;53.156;18.164;2023-12-14T06:03:52;100788.30;;;1.43;88.84
76551;BME280;68768;53.156;18.164;2023-12-14T06:06:18;100787.77;;;1.43;88.74
76551;BME280;68768;53.156;18.164;2023-12-14T06:08:45;100789.70;;;1.43;88.75
76551;BME280;68768;53.156;18.164;2023-12-14T06:11:13;100796.86;;;1.43;88.66
76551;BME280;68768;53.156;18.164;2023-12-14T06:13:39;100795.65;;;1.44;88.74
76551;BME280;68768;53.156;18.164;2023-12-14T06:16:06;100798.27;;;1.44;88.74
76551;BME280;68768;53.156;18.164;2023-12-14T06:18:39;100800.02;;;1.45;88.74
76551;BME280;68768;53.156;18.164;2023-12-14T06:21:07;100805.79;;;1.45;88.80
76551;BME280;68768;53.156;18.164;2023-12-14T06:23:37;100809.11;;;1.46;88.75
76551;BME280;68768;53.156;18.164;2023-12-14T06:26:04;100815.94;;;1.47;88.76
76551;BME280;68768;53.156;18.164;2023-12-14T06:28:30;100819.61;;;1.46;88.69
76551;BME280;68768;53.156;18.164;2023-12-14T06:30:59;100824.67;;;1.45;88.72
76551;BME280;68768;53.156;18.164;2023-12-14T06:33:27;100832.90;;;1.45;88.78
76551;BME280;68768;53.156;18.164;2023-12-14T06:35:53;100835.17;;;1.44;88.71
76551;BME280;68768;53.156;18.164;2023-12-14T06:38:19;100841.30;;;1.45;88.81
76551;BME280;68768;53.156;18.164;2023-12-14T06:40:46;100845.31;;;1.43;88.79
76551;BME280;68768;53.156;18.164;2023-12-14T06:43:12;100847.60;;;1.41;88.76
76551;BME280;68768;53.156;18.164;2023-12-14T06:45:38;100850.92;;;1.40;88.96
76551;BME280;68768;53.156;18.164;2023-12-14T06:48:05;100855.13;;;1.40;88.93
76551;BME280;68768;53.156;18.164;2023-12-14T06:50:31;100856.17;;;1.40;89.00
76551;BME280;68768;53.156;18.164;2023-12-14T06:52:58;100862.64;;;1.42;88.95
76551;BME280;68768;53.156;18.164;2023-12-14T06:55:24;100865.24;;;1.43;89.03
76551;BME280;68768;53.156;18.164;2023-12-14T06:57:50;100867.52;;;1.44;88.85
76551;BME280;68768;53.156;18.164;2023-12-14T07:00:16;100868.57;;;1.44;88.61
76551;BME280;68768;53.156;18.164;2023-12-14T07:02:43;100872.24;;;1.43;88.55
76551;BME280;68768;53.156;18.164;2023-12-14T07:05:10;100876.97;;;1.43;88.52
76551;BME280;68768;53.156;18.164;2023-12-14T07:07:36;100883.97;;;1.42;88.36
76551;BME280;68768;53.156;18.164;2023-12-14T07:10:03;100885.73;;;1.40;88.20
76551;BME280;68768;53.156;18.164;2023-12-14T07:12:29;100889.22;;;1.39;88.19
76551;BME280;68768;53.156;18.164;2023-12-14T07:14:55;100894.27;;;1.38;88.09
76551;BME280;68768;53.156;18.164;2023-12-14T07:17:21;100902.33;;;1.38;88.23
76551;BME280;68768;53.156;18.164;2023-12-14T07:19:48;100905.83;;;1.37;88.05
76551;BME280;68768;53.156;18.164;2023-12-14T07:22:14;100910.02;;;1.37;87.89
76551;BME280;68768;53.156;18.164;2023-12-14T07:24:41;100910.02;;;1.38;87.93
76551;BME280;68768;53.156;18.164;2023-12-14T07:27:07;100908.97;;;1.37;87.82
76551;BME280;68768;53.156;18.164;2023-12-14T07:29:34;100912.30;;;1.37;87.90
76551;BME280;68768;53.156;18.164;2023-12-14T07:32:00;100916.48;;;1.37;87.79
76551;BME280;68768;53.156;18.164;2023-12-14T07:34:27;100922.60;;;1.36;87.55
76551;BME280;68768;53.156;18.164;2023-12-14T07:36:54;100926.29;;;1.37;87.75
76551;BME280;68768;53.156;18.164;2023-12-14T07:39:20;100924.54;;;1.37;87.70
76551;BME280;68768;53.156;18.164;2023-12-14T07:41:47;100926.11;;;1.37;87.38
76551;BME280;68768;53.156;18.164;2023-12-14T07:44:13;100929.79;;;1.38;87.66
76551;BME280;68768;53.156;18.164;2023-12-14T07:46:39;100934.34;;;1.38;87.42
76551;BME280;68768;53.156;18.164;2023-12-14T07:49:08;100938.36;;;1.39;87.32
76551;BME280;68768;53.156;18.164;2023-12-14T07:51:34;100940.10;;;1.38;87.09
76551;BME280;68768;53.156;18.164;2023-12-14T07:54:01;100943.78;;;1.40;87.24
76551;BME280;68768;53.156;18.164;2023-12-14T07:56:29;100951.31;;;1.40;87.17
76551;BME280;68768;53.156;18.164;2023-12-14T07:58:55;100957.27;;;1.42;86.98
76551;BME280;68768;53.156;18.164;2023-12-14T08:01:22;100962.52;;;1.42;86.91
76551;BME280;68768;53.156;18.164;2023-12-14T08:03:48;100968.27;;;1.43;86.96
76551;BME280;68768;53.156;18.164;2023-12-14T08:06:14;100969.30;;;1.43;86.92
76551;BME280;68768;53.156;18.164;2023-12-14T08:08:41;100976.84;;;1.46;86.79
76551;BME280;68768;53.156;18.164;2023-12-14T08:11:08;100981.23;;;1.46;86.58
76551;BME280;68768;53.156;18.164;2023-12-14T08:13:34;100986.12;;;1.47;86.52
76551;BME280;68768;53.156;18.164;2023-12-14T08:16:00;100987.00;;;1.48;86.55
76551;BME280;68768;53.156;18.164;2023-12-14T08:18:27;100984.56;;;1.51;86.38
76551;BME280;68768;53.156;18.164;2023-12-14T08:20:53;100982.98;;;1.51;85.97
76551;BME280;68768;53.156;18.164;2023-12-14T08:23:21;100988.77;;;1.52;85.76
76551;BME280;68768;53.156;18.164;2023-12-14T08:25:47;100991.74;;;1.52;86.03
76551;BME280;68768;53.156;18.164;2023-12-14T08:28:14;100992.79;;;1.53;85.79
76551;BME280;68768;53.156;18.164;2023-12-14T08:30:41;100997.52;;;1.53;85.74
76551;BME280;68768;53.156;18.164;2023-12-14T08:33:07;100998.02;;;1.55;85.79
76551;BME280;68768;53.156;18.164;2023-12-14T08:35:33;101003.46;;;1.55;85.49
76551;BME280;68768;53.156;18.164;2023-12-14T08:37:59;101009.58;;;1.56;85.05
76551;BME280;68768;53.156;18.164;2023-12-14T08:40:26;101014.65;;;1.56;85.43
76551;BME280;68768;53.156;18.164;2023-12-14T08:42:52;101018.69;;;1.58;85.50
76551;BME280;68768;53.156;18.164;2023-12-14T08:45:19;101019.40;;;1.59;85.39
76551;BME280;68768;53.156;18.164;2023-12-14T08:47:45;101024.30;;;1.61;85.17
76551;BME280;68768;53.156;18.164;2023-12-14T08:50:11;101030.78;;;1.63;84.99
76551;BME280;68768;53.156;18.164;2023-12-14T08:52:38;101037.06;;;1.64;85.08
76551;BME280;68768;53.156;18.164;2023-12-14T08:55:05;101042.16;;;1.67;85.36
76551;BME280;68768;53.156;18.164;2023-12-14T08:57:31;101045.49;;;1.69;84.92
76551;BME280;68768;53.156;18.164;2023-12-14T08:59:58;101054.08;;;1.71;84.52
76551;BME280;68768;53.156;18.164;2023-12-14T09:02:24;101058.45;;;1.71;84.34
76551;BME280;68768;53.156;18.164;2023-12-14T09:04:50;101064.41;;;1.72;84.21
76551;BME280;68768;53.156;18.164;2023-12-14T09:07:17;101060.91;;;1.72;84.08
76551;BME280;68768;53.156;18.164;2023-12-14T09:09:44;101066.15;;;1.73;84.44
76551;BME280;68768;53.156;18.164;2023-12-14T09:12:10;101062.99;;;1.76;84.27
76551;BME280;68768;53.156;18.164;2023-12-14T09:14:36;101067.74;;;1.78;84.54
76551;BME280;68768;53.156;18.164;2023-12-14T09:17:02;101070.04;;;1.82;84.45
76551;BME280;68768;53.156;18.164;2023-12-14T09:19:32;101066.20;;;1.83;83.47
76551;BME280;68768;53.156;18.164;2023-12-14T09:21:58;101061.63;;;1.84;84.00
76551;BME280;68768;53.156;18.164;2023-12-14T09:24:25;101067.06;;;1.87;83.71
76551;BME280;68768;53.156;18.164;2023-12-14T09:26:52;101071.63;;;1.89;83.66
76551;BME280;68768;53.156;18.164;2023-12-14T09:29:18;101073.58;;;1.91;84.02
76551;BME280;68768;53.156;18.164;2023-12-14T09:31:45;101074.97;;;1.94;83.33
76551;BME280;68768;53.156;18.164;2023-12-14T09:34:12;101076.70;;;1.94;82.41
76551;BME280;68768;53.156;18.164;2023-12-14T09:36:39;101077.93;;;1.94;82.17
76551;BME280;68768;53.156;18.164;2023-12-14T09:39:06;101081.27;;;1.94;81.93
76551;BME280;68768;53.156;18.164;2023-12-14T09:41:37;101082.13;;;1.95;82.16
76551;BME280;68768;53.156;18.164;2023-12-14T09:44:05;101082.31;;;1.96;82.44
76551;BME280;68768;53.156;18.164;2023-12-14T09:46:37;101084.44;;;2.00;82.82
76551;BME280;68768;53.156;18.164;2023-12-14T09:49:04;101081.64;;;2.02;81.75
76551;BME280;68768;53.156;18.164;2023-12-14T09:51:31;101082.70;;;2.03;81.71
76551;BME280;68768;53.156;18.164;2023-12-14T09:53:57;101089.69;;;2.04;81.76
76551;BME280;68768;53.156;18.164;2023-12-14T09:56:25;101090.39;;;2.05;81.44
76551;BME280;68768;53.156;18.164;2023-12-14T09:58:52;101091.79;;;2.06;81.51
76551;BME280;68768;53.156;18.164;2023-12-14T10:01:25;101091.63;;;2.08;81.81
76551;BME280;68768;53.156;18.164;2023-12-14T10:04:12;101094.45;;;2.11;81.76
76551;BME280;68768;53.156;18.164;2023-12-14T10:06:41;101093.57;;;2.14;81.58
76551;BME280;68768;53.156;18.164;2023-12-14T10:09:08;101094.46;;;2.18;81.91
76551;BME280;68768;53.156;18.164;2023-12-14T10:11:45;101092.71;;;2.20;80.98
76551;BME280;68768;53.156;18.164;2023-12-14T10:14:21;101096.23;;;2.20;80.41
76551;BME280;68768;53.156;18.164;2023-12-14T10:16:49;101092.90;;;2.23;81.09
76551;BME280;68768;53.156;18.164;2023-12-14T10:19:17;101097.25;;;2.25;80.37
76551;BME280;68768;53.156;18.164;2023-12-14T10:21:46;101096.39;;;2.25;79.63
76551;BME280;68768;53.156;18.164;2023-12-14T10:24:13;101099.73;;;2.25;79.99
76551;BME280;68768;53.156;18.164;2023-12-14T10:26:40;101100.23;;;2.25;79.80
76551;BME280;68768;53.156;18.164;2023-12-14T10:29:07;101100.77;;;2.26;80.30
76551;BME280;68768;53.156;18.164;2023-12-14T10:31:33;101106.38;;;2.28;80.09
76551;BME280;68768;53.156;18.164;2023-12-14T10:34:04;101111.10;;;2.27;78.37
76551;BME280;68768;53.156;18.164;2023-12-14T10:36:31;101112.15;;;2.26;79.36
76551;BME280;68768;53.156;18.164;2023-12-14T10:39:00;101113.38;;;2.28;79.74
76551;BME280;68768;53.156;18.164;2023-12-14T10:41:27;101114.96;;;2.30;79.18
76551;BME280;68768;53.156;18.164;2023-12-14T10:43:56;101116.90;;;2.30;79.08
76551;BME280;68768;53.156;18.164;2023-12-14T10:46:23;101118.65;;;2.31;78.76
76551;BME280;68768;53.156;18.164;2023-12-14T10:48:51;101123.55;;;2.32;78.69
76551;BME280;68768;53.156;18.164;2023-12-14T10:51:18;101125.15;;;2.33;79.62
76551;BME280;68768;53.156;18.164;2023-12-14T10:53:47;101128.63;;;2.36;79.61
76551;BME280;68768;53.156;18.164;2023-12-14T10:56:15;101127.77;;;2.39;80.34
76551;BME280;68768;53.156;18.164;2023-12-14T10:58:50;101134.79;;;2.43;79.95
76551;BME280;68768;53.156;18.164;2023-12-14T11:01:19;101135.30;;;2.46;79.51
76551;BME280;68768;53.156;18.164;2023-12-14T11:03:47;101132.67;;;2.47;78.94
76551;BME280;68768;53.156;18.164;2023-12-14T11:08:57;101139.69;;;2.43;77.96
76551;BME280;68768;53.156;18.164;2023-12-14T11:11:28;101142.50;;;2.43;78.45
76551;BME280;68768;53.156;18.164;2023-12-14T11:13:54;101146.88;;;2.42;78.30
76551;BME280;68768;53.156;18.164;2023-12-14T11:16:23;101149.69;;;2.42;78.51
76551;BME280;68768;53.156;18.164;2023-12-14T11:24:37;101165.11;;;2.43;77.74
76551;BME280;68768;53.156;18.164;2023-12-14T11:27:08;101167.03;;;2.43;77.65
76551;BME280;68768;53.156;18.164;2023-12-14T11:29:37;101168.77;;;2.43;76.75
76551;BME280;68768;53.156;18.164;2023-12-14T11:32:05;101169.29;;;2.40;76.20
76551;BME280;68768;53.156;18.164;2023-12-14T11:34:32;101173.66;;;2.39;77.71
76551;BME280;68768;53.156;18.164;2023-12-14T11:36:58;101176.64;;;2.40;76.96
76551;BME280;68768;53.156;18.164;2023-12-14T11:39:30;101181.20;;;2.39;77.75
76551;BME280;68768;53.156;18.164;2023-12-14T11:42:04;101181.73;;;2.40;76.97
76551;BME280;68768;53.156;18.164;2023-12-14T11:44:30;101186.27;;;2.39;76.54
76551;BME280;68768;53.156;18.164;2023-12-14T11:46:57;101185.92;;;2.39;76.42
76551;BME280;68768;53.156;18.164;2023-12-14T11:49:25;101185.91;;;2.37;75.75
76551;BME280;68768;53.156;18.164;2023-12-14T11:51:54;101188.20;;;2.37;76.03
76551;BME280;68768;53.156;18.164;2023-12-14T11:54:21;101187.32;;;2.37;76.44
76551;BME280;68768;53.156;18.164;2023-12-14T11:56:48;101187.49;;;2.39;76.87
76551;BME280;68768;53.156;18.164;2023-12-14T11:59:16;101191.18;;;2.39;76.15
76551;BME280;68768;53.156;18.164;2023-12-14T12:01:57;101192.06;;;2.40;76.81
76551;BME280;68768;53.156;18.164;2023-12-14T12:04:24;101197.67;;;2.42;76.58
76551;BME280;68768;53.156;18.164;2023-12-14T12:07:04;101194.17;;;2.41;75.87
76551;BME280;68768;53.156;18.164;2023-12-14T12:09:41;101195.40;;;2.42;76.42
76551;BME280;68768;53.156;18.164;2023-12-14T12:12:11;101197.67;;;2.41;75.36
76551;BME280;68768;53.156;18.164;2023-12-14T12:14:41;101201.00;;;2.41;76.49
76551;BME280;68768;53.156;18.164;2023-12-14T12:17:08;101202.40;;;2.42;76.67
76551;BME280;68768;53.156;18.164;2023-12-14T12:19:35;101201.19;;;2.43;76.43
76551;BME280;68768;53.156;18.164;2023-12-14T12:22:03;101204.34;;;2.43;75.17
76551;BME280;68768;53.156;18.164;2023-12-14T12:24:30;101203.81;;;2.42;75.33
76551;BME280;68768;53.156;18.164;2023-12-14T12:26:57;101203.10;;;2.41;74.80
76551;BME280;68768;53.156;18.164;2023-12-14T12:29:23;101206.42;;;2.39;74.49
76551;BME280;68768;53.156;18.164;2023-12-14T12:31:50;101205.36;;;2.38;74.45
76551;BME280;68768;53.156;18.164;2023-12-14T12:34:18;101208.33;;;2.36;74.41
76551;BME280;68768;53.156;18.164;2023-12-14T12:36:44;101209.91;;;2.33;73.75
76551;BME280;68768;53.156;18.164;2023-12-14T12:39:10;101215.17;;;2.32;74.23
76551;BME280;68768;53.156;18.164;2023-12-14T12:41:37;101212.52;;;2.31;74.61
76551;BME280;68768;53.156;18.164;2023-12-14T12:44:04;101221.46;;;2.31;75.70
76551;BME280;68768;53.156;18.164;2023-12-14T12:46:35;101220.23;;;2.32;74.49
76551;BME280;68768;53.156;18.164;2023-12-14T12:49:02;101226.35;;;2.30;73.99
76551;BME280;68768;53.156;18.164;2023-12-14T12:51:30;101228.79;;;2.26;73.76
76551;BME280;68768;53.156;18.164;2023-12-14T12:54:00;101232.63;;;2.26;74.54
76551;BME280;68768;53.156;18.164;2023-12-14T12:56:26;101234.56;;;2.26;74.71
76551;BME280;68768;53.156;18.164;2023-12-14T12:58:54;101236.48;;;2.26;74.76